sensor_id;sensor_type;location;lat;lon;timestamp;pressure;altitude;pressure_sealevel;temperature;humidity
48926;BME280;39838;59.938;30.642;2023-03-04T00:02:24;98324.88;;;-2.32;77.79
48926;BME280;39838;59.938;30.642;2023-03-04T00:04:52;98317.25;;;-2.32;77.54
48926;BME280;39838;59.938;30.642;2023-03-04T00:07:19;98313.94;;;-2.28;77.35
48926;BME280;39838;59.938;30.642;2023-03-04T00:09:46;98310.53;;;-2.27;77.22
48926;BME280;39838;59.938;30.642;2023-03-04T00:12:13;98308.09;;;-2.22;77.42
48926;BME280;39838;59.938;30.642;2023-03-04T00:14:40;98302.38;;;-2.07;77.00
48926;BME280;39838;59.938;30.642;2023-03-04T00:17:09;98294.88;;;-1.98;76.47
48926;BME280;39838;59.938;30.642;2023-03-04T00:19:36;98293.28;;;-1.90;76.28
48926;BME280;39838;59.938;30.642;2023-03-04T00:22:03;98289.94;;;-1.89;76.07
48926;BME280;39838;59.938;30.642;2023-03-04T00:24:31;98283.09;;;-1.92;76.00
48926;BME280;39838;59.938;30.642;2023-03-04T00:26:59;98279.56;;;-2.01;76.16
48926;BME280;39838;59.938;30.642;2023-03-04T00:29:26;98277.75;;;-2.10;76.17
48926;BME280;39838;59.938;30.642;2023-03-04T00:31:53;98268.34;;;-2.15;76.54
48926;BME280;39838;59.938;30.642;2023-03-04T00:34:22;98258.06;;;-2.22;76.72
48926;BME280;39838;59.938;30.642;2023-03-04T00:36:49;98264.84;;;-2.22;76.88
48926;BME280;39838;59.938;30.642;2023-03-04T00:39:16;98257.31;;;-2.14;77.10
48926;BME280;39838;59.938;30.642;2023-03-04T00:41:44;98251.47;;;-2.07;76.95
48926;BME280;39838;59.938;30.642;2023-03-04T00:44:11;98252.56;;;-1.90;76.89
48926;BME280;39838;59.938;30.642;2023-03-04T00:46:38;98246.03;;;-1.71;76.42
48926;BME280;39838;59.938;30.642;2023-03-04T00:49:05;98244.53;;;-1.55;76.17
48926;BME280;39838;59.938;30.642;2023-03-04T00:51:34;98233.66;;;-1.42;75.91
48926;BME280;39838;59.938;30.642;2023-03-04T00:54:02;98235.47;;;-1.29;75.46
48926;BME280;39838;59.938;30.642;2023-03-04T00:56:29;98227.03;;;-1.25;74.88
48926;BME280;39838;59.938;30.642;2023-03-04T00:58:56;98226.19;;;-1.25;74.72
48926;BME280;39838;59.938;30.642;2023-03-04T01:01:23;98221.97;;;-1.23;74.59
48926;BME280;39838;59.938;30.642;2023-03-04T01:03:50;98210.13;;;-1.20;74.48
48926;BME280;39838;59.938;30.642;2023-03-04T01:06:18;98216.91;;;-1.22;74.41
48926;BME280;39838;59.938;30.642;2023-03-04T01:08:46;98212.66;;;-1.20;74.06
48926;BME280;39838;59.938;30.642;2023-03-04T01:11:13;98203.31;;;-1.19;73.96
48926;BME280;39838;59.938;30.642;2023-03-04T01:13:40;98204.19;;;-1.16;73.68
48926;BME280;39838;59.938;30.642;2023-03-04T01:16:08;98202.56;;;-1.09;73.60
48926;BME280;39838;59.938;30.642;2023-03-04T01:18:35;98186.47;;;-1.06;73.52
48926;BME280;39838;59.938;30.642;2023-03-04T01:21:03;98197.56;;;-1.00;73.16
48926;BME280;39838;59.938;30.642;2023-03-04T01:23:30;98189.03;;;-1.02;73.12
48926;BME280;39838;59.938;30.642;2023-03-04T01:25:58;98186.53;;;-0.99;72.94
48926;BME280;39838;59.938;30.642;2023-03-04T01:28:25;98188.25;;;-0.96;72.99
48926;BME280;39838;59.938;30.642;2023-03-04T01:30:53;98185.72;;;-0.93;72.47
48926;BME280;39838;59.938;30.642;2023-03-04T01:33:20;98183.97;;;-0.99;72.36
48926;BME280;39838;59.938;30.642;2023-03-04T01:35:47;98178.88;;;-0.99;72.61
48926;BME280;39838;59.938;30.642;2023-03-04T01:38:15;98179.75;;;-0.95;72.53
48926;BME280;39838;59.938;30.642;2023-03-04T01:40:42;98167.00;;;-0.97;72.57
48926;BME280;39838;59.938;30.642;2023-03-04T01:43:17;98172.06;;;-1.01;72.23
48926;BME280;39838;59.938;30.642;2023-03-04T01:45:47;98139.69;;;-1.10;72.51
48926;BME280;39838;59.938;30.642;2023-03-04T01:48:17;98165.28;;;-0.96;72.37
48926;BME280;39838;59.938;30.642;2023-03-04T01:50:45;98156.00;;;-0.94;72.13
48926;BME280;39838;59.938;30.642;2023-03-04T01:53:18;98152.59;;;-0.93;72.14
48926;BME280;39838;59.938;30.642;2023-03-04T01:55:46;98154.28;;;-0.94;72.07
48926;BME280;39838;59.938;30.642;2023-03-04T01:58:15;98145.75;;;-1.00;71.96
48926;BME280;39838;59.938;30.642;2023-03-04T02:00:42;98144.03;;;-0.98;72.22
48926;BME280;39838;59.938;30.642;2023-03-04T02:03:10;98146.66;;;-0.94;72.35
48926;BME280;39838;59.938;30.642;2023-03-04T02:05:40;98139.81;;;-0.96;72.24
48926;BME280;39838;59.938;30.642;2023-03-04T02:08:09;98139.81;;;-0.96;72.44
48926;BME280;39838;59.938;30.642;2023-03-04T02:10:38;98134.75;;;-0.93;72.50
48926;BME280;39838;59.938;30.642;2023-03-04T02:13:27;98134.75;;;-0.90;72.47
48926;BME280;39838;59.938;30.642;2023-03-04T02:15:54;98127.16;;;-0.84;72.50
48926;BME280;39838;59.938;30.642;2023-03-04T02:18:22;98103.28;;;-0.95;72.78
48926;BME280;39838;59.938;30.642;2023-03-04T02:21:01;98129.75;;;-0.76;72.38
48926;BME280;39838;59.938;30.642;2023-03-04T02:23:34;98108.50;;;-0.80;72.46
48926;BME280;39838;59.938;30.642;2023-03-04T02:26:12;98123.09;;;-0.61;72.22
48926;BME280;39838;59.938;30.642;2023-03-04T02:28:39;98117.16;;;-0.60;71.90
48926;BME280;39838;59.938;30.642;2023-03-04T02:31:18;98121.41;;;-0.59;72.11
48926;BME280;39838;59.938;30.642;2023-03-04T02:33:47;98117.19;;;-0.53;72.36
48926;BME280;39838;59.938;30.642;2023-03-04T02:36:15;98122.28;;;-0.53;72.61
48926;BME280;39838;59.938;30.642;2023-03-04T02:38:42;98108.69;;;-0.52;72.49
48926;BME280;39838;59.938;30.642;2023-03-04T02:41:13;98114.63;;;-0.52;72.42
48926;BME280;39838;59.938;30.642;2023-03-04T02:43:43;98059.19;;;-0.84;72.46
48926;BME280;39838;59.938;30.642;2023-03-04T02:46:11;98097.63;;;-0.48;72.91
48926;BME280;39838;59.938;30.642;2023-03-04T02:48:39;98094.28;;;-0.46;72.48
48926;BME280;39838;59.938;30.642;2023-03-04T02:51:06;98088.31;;;-0.43;72.62
48926;BME280;39838;59.938;30.642;2023-03-04T02:53:33;98092.59;;;-0.39;72.67
48926;BME280;39838;59.938;30.642;2023-03-04T02:56:00;98077.28;;;-0.38;72.76
48926;BME280;39838;59.938;30.642;2023-03-04T02:58:29;98081.53;;;-0.38;72.85
48926;BME280;39838;59.938;30.642;2023-03-04T03:00:56;98077.25;;;-0.41;72.76
48926;BME280;39838;59.938;30.642;2023-03-04T03:03:23;98074.72;;;-0.42;73.27
48926;BME280;39838;59.938;30.642;2023-03-04T03:05:51;98071.31;;;-0.41;73.48
48926;BME280;39838;59.938;30.642;2023-03-04T03:08:19;98070.47;;;-0.42;73.38
48926;BME280;39838;59.938;30.642;2023-03-04T03:10:46;98067.06;;;-0.44;73.43
48926;BME280;39838;59.938;30.642;2023-03-04T03:13:13;98067.06;;;-0.44;73.16
48926;BME280;39838;59.938;30.642;2023-03-04T03:15:42;98064.50;;;-0.47;73.52
48926;BME280;39838;59.938;30.642;2023-03-04T03:18:09;98062.81;;;-0.46;73.77
48926;BME280;39838;59.938;30.642;2023-03-04T03:20:36;98058.47;;;-0.58;73.72
48926;BME280;39838;59.938;30.642;2023-03-04T03:23:04;98055.91;;;-0.66;73.84
48926;BME280;39838;59.938;30.642;2023-03-04T03:25:31;98055.84;;;-0.69;74.16
48926;BME280;39838;59.938;30.642;2023-03-04T03:27:58;98054.16;;;-0.70;73.76
48926;BME280;39838;59.938;30.642;2023-03-04T03:30:25;98048.22;;;-0.72;73.98
48926;BME280;39838;59.938;30.642;2023-03-04T03:32:54;98051.56;;;-0.76;73.98
48926;BME280;39838;59.938;30.642;2023-03-04T03:35:21;98038.78;;;-0.82;74.67
48926;BME280;39838;59.938;30.642;2023-03-04T03:37:48;98039.63;;;-0.83;74.46
48926;BME280;39838;59.938;30.642;2023-03-04T03:40:15;98035.34;;;-0.89;74.45
48926;BME280;39838;59.938;30.642;2023-03-04T03:42:43;98039.59;;;-0.89;74.54
48926;BME280;39838;59.938;30.642;2023-03-04T03:45:10;98027.69;;;-0.89;74.56
48926;BME280;39838;59.938;30.642;2023-03-04T03:47:37;98034.50;;;-0.92;74.32
48926;BME280;39838;59.938;30.642;2023-03-04T03:50:06;98027.66;;;-0.98;74.62
48926;BME280;39838;59.938;30.642;2023-03-04T03:52:34;98023.41;;;-1.00;74.67
48926;BME280;39838;59.938;30.642;2023-03-04T03:55:01;98024.22;;;-1.03;74.77
48926;BME280;39838;59.938;30.642;2023-03-04T03:57:29;98019.09;;;-1.06;74.50
48926;BME280;39838;59.938;30.642;2023-03-04T03:59:56;98018.22;;;-1.10;74.80
48926;BME280;39838;59.938;30.642;2023-03-04T04:02:23;98019.06;;;-1.12;74.72
48926;BME280;39838;59.938;30.642;2023-03-04T04:04:50;98013.09;;;-1.16;74.85
48926;BME280;39838;59.938;30.642;2023-03-04T04:07:19;98012.22;;;-1.19;75.03
48926;BME280;39838;59.938;30.642;2023-03-04T04:09:46;98009.63;;;-1.24;75.12
48926;BME280;39838;59.938;30.642;2023-03-04T04:12:14;98001.94;;;-1.31;75.63
48926;BME280;39838;59.938;30.642;2023-03-04T04:14:42;98015.63;;;-1.19;75.46
48926;BME280;39838;59.938;30.642;2023-03-04T04:17:09;98010.53;;;-1.19;75.38
48926;BME280;39838;59.938;30.642;2023-03-04T04:19:37;98008.78;;;-1.26;75.48
48926;BME280;39838;59.938;30.642;2023-03-04T04:22:05;98009.59;;;-1.31;75.59
48926;BME280;39838;59.938;30.642;2023-03-04T04:24:34;98010.38;;;-1.35;75.73
48926;BME280;39838;59.938;30.642;2023-03-04T04:27:01;98003.59;;;-1.38;75.87
48926;BME280;39838;59.938;30.642;2023-03-04T04:29:29;98008.72;;;-1.35;76.05
48926;BME280;39838;59.938;30.642;2023-03-04T04:31:56;98006.19;;;-1.35;76.04
48926;BME280;39838;59.938;30.642;2023-03-04T04:34:23;98007.88;;;-1.34;75.95
48926;BME280;39838;59.938;30.642;2023-03-04T04:36:51;98000.28;;;-1.28;76.07
48926;BME280;39838;59.938;30.642;2023-03-04T04:39:18;98001.97;;;-1.27;75.78
48926;BME280;39838;59.938;30.642;2023-03-04T04:41:47;98001.13;;;-1.26;75.59
48926;BME280;39838;59.938;30.642;2023-03-04T04:44:14;97996.94;;;-1.21;75.91
48926;BME280;39838;59.938;30.642;2023-03-04T04:46:41;97993.53;;;-1.17;75.66
48926;BME280;39838;59.938;30.642;2023-03-04T04:49:09;97993.59;;;-1.12;75.69
48926;BME280;39838;59.938;30.642;2023-03-04T04:51:37;97995.28;;;-1.13;75.63
48926;BME280;39838;59.938;30.642;2023-03-04T04:54:05;97995.25;;;-1.16;75.70
48926;BME280;39838;59.938;30.642;2023-03-04T04:56:32;97991.03;;;-1.15;75.56
48926;BME280;39838;59.938;30.642;2023-03-04T04:59:03;97988.44;;;-1.18;75.36
48926;BME280;39838;59.938;30.642;2023-03-04T05:01:32;97991.03;;;-1.11;75.92
48926;BME280;39838;59.938;30.642;2023-03-04T05:03:59;97991.03;;;-1.11;75.40
48926;BME280;39838;59.938;30.642;2023-03-04T05:06:26;97991.88;;;-1.13;75.83
48926;BME280;39838;59.938;30.642;2023-03-04T05:08:53;97996.13;;;-1.11;75.81
48926;BME280;39838;59.938;30.642;2023-03-04T05:11:21;97994.47;;;-1.07;75.83
48926;BME280;39838;59.938;30.642;2023-03-04T05:13:48;97996.16;;;-1.06;75.83
48926;BME280;39838;59.938;30.642;2023-03-04T05:16:17;97991.06;;;-1.07;75.40
48926;BME280;39838;59.938;30.642;2023-03-04T05:18:44;97991.88;;;-1.08;75.81
48926;BME280;39838;59.938;30.642;2023-03-04T05:21:12;97995.31;;;-1.05;75.39
48926;BME280;39838;59.938;30.642;2023-03-04T05:23:40;97983.44;;;-1.07;75.33
48926;BME280;39838;59.938;30.642;2023-03-04T05:26:11;97969.78;;;-1.14;75.63
48926;BME280;39838;59.938;30.642;2023-03-04T05:28:38;97986.03;;;-0.98;75.64
48926;BME280;39838;59.938;30.642;2023-03-04T05:31:06;97985.22;;;-0.90;75.67
48926;BME280;39838;59.938;30.642;2023-03-04T05:33:34;97995.44;;;-0.82;75.68
48926;BME280;39838;59.938;30.642;2023-03-04T05:36:02;97997.19;;;-0.75;75.37
48926;BME280;39838;59.938;30.642;2023-03-04T05:38:30;97993.81;;;-0.74;74.95
48926;BME280;39838;59.938;30.642;2023-03-04T05:40:59;97989.56;;;-0.69;74.79
48926;BME280;39838;59.938;30.642;2023-03-04T05:43:27;98003.16;;;-0.68;75.03
48926;BME280;39838;59.938;30.642;2023-03-04T05:45:54;97991.25;;;-0.71;75.27
48926;BME280;39838;59.938;30.642;2023-03-04T05:48:22;97993.84;;;-0.62;74.75
48926;BME280;39838;59.938;30.642;2023-03-04T05:50:54;97993.03;;;-0.55;75.05
48926;BME280;39838;59.938;30.642;2023-03-04T05:53:22;97991.38;;;-0.45;75.31
48926;BME280;39838;59.938;30.642;2023-03-04T05:55:49;97993.03;;;-0.48;75.03
48926;BME280;39838;59.938;30.642;2023-03-04T05:58:17;97986.25;;;-0.49;74.78
48926;BME280;39838;59.938;30.642;2023-03-04T06:00:44;97993.94;;;-0.46;74.59
48926;BME280;39838;59.938;30.642;2023-03-04T06:03:14;97996.50;;;-0.37;75.33
48926;BME280;39838;59.938;30.642;2023-03-04T06:05:42;97996.53;;;-0.28;75.13
48926;BME280;39838;59.938;30.642;2023-03-04T06:08:11;98003.34;;;-0.27;74.77
48926;BME280;39838;59.938;30.642;2023-03-04T06:10:39;97994.84;;;-0.26;74.53
48926;BME280;39838;59.938;30.642;2023-03-04T06:13:08;97995.72;;;-0.16;74.87
48926;BME280;39838;59.938;30.642;2023-03-04T06:15:35;98009.38;;;-0.05;74.54
48926;BME280;39838;59.938;30.642;2023-03-04T06:18:02;98004.28;;;0.07;74.47
48926;BME280;39838;59.938;30.642;2023-03-04T06:20:30;98004.28;;;0.13;74.08
48926;BME280;39838;59.938;30.642;2023-03-04T06:22:57;97997.50;;;0.14;74.07
48926;BME280;39838;59.938;30.642;2023-03-04T06:25:26;98003.47;;;0.23;73.69
48926;BME280;39838;59.938;30.642;2023-03-04T06:27:53;98006.03;;;0.30;74.07
48926;BME280;39838;59.938;30.642;2023-03-04T06:30:20;97994.94;;;0.31;74.06
48926;BME280;39838;59.938;30.642;2023-03-04T06:32:48;97999.22;;;0.41;73.44
48926;BME280;39838;59.938;30.642;2023-03-04T06:35:16;98000.09;;;0.41;73.31
48926;BME280;39838;59.938;30.642;2023-03-04T06:37:43;98001.75;;;0.47;73.38
48926;BME280;39838;59.938;30.642;2023-03-04T06:40:11;97986.44;;;0.50;73.05
48926;BME280;39838;59.938;30.642;2023-03-04T06:42:40;98003.47;;;0.65;72.78
48926;BME280;39838;59.938;30.642;2023-03-04T06:45:08;98000.06;;;0.72;72.67
48926;BME280;39838;59.938;30.642;2023-03-04T06:47:36;98000.91;;;0.83;72.38
48926;BME280;39838;59.938;30.642;2023-03-04T06:50:04;98006.88;;;0.91;72.27
48926;BME280;39838;59.938;30.642;2023-03-04T06:52:31;98009.41;;;1.02;72.28
48926;BME280;39838;59.938;30.642;2023-03-04T06:54:58;98011.94;;;1.16;71.85
48926;BME280;39838;59.938;30.642;2023-03-04T06:57:26;98007.69;;;1.22;71.39
48926;BME280;39838;59.938;30.642;2023-03-04T06:59:54;98006.81;;;1.25;70.62
48926;BME280;39838;59.938;30.642;2023-03-04T07:02:21;98007.63;;;1.27;70.76
48926;BME280;39838;59.938;30.642;2023-03-04T07:04:49;97999.94;;;1.28;71.13
48926;BME280;39838;59.938;30.642;2023-03-04T07:07:16;98011.88;;;1.37;71.00
48926;BME280;39838;59.938;30.642;2023-03-04T07:09:43;98014.41;;;1.48;70.56
48926;BME280;39838;59.938;30.642;2023-03-04T07:12:10;98008.41;;;1.58;70.66
48926;BME280;39838;59.938;30.642;2023-03-04T07:14:37;98010.09;;;1.63;69.94
48926;BME280;39838;59.938;30.642;2023-03-04T07:17:06;98009.19;;;1.74;70.10
48926;BME280;39838;59.938;30.642;2023-03-04T07:19:33;98009.97;;;1.86;70.13
48926;BME280;39838;59.938;30.642;2023-03-04T07:22:00;98021.00;;;1.99;69.31
48926;BME280;39838;59.938;30.642;2023-03-04T07:24:27;98021.88;;;2.00;69.50
48926;BME280;39838;59.938;30.642;2023-03-04T07:26:54;98016.69;;;2.07;69.22
48926;BME280;39838;59.938;30.642;2023-03-04T07:29:21;98026.06;;;2.08;69.11
48926;BME280;39838;59.938;30.642;2023-03-04T07:31:48;98022.63;;;2.15;68.57
48926;BME280;39838;59.938;30.642;2023-03-04T07:34:17;98025.13;;;2.28;68.50
48926;BME280;39838;59.938;30.642;2023-03-04T07:36:44;98028.47;;;2.34;68.10
48926;BME280;39838;59.938;30.642;2023-03-04T07:39:14;98027.66;;;2.29;67.98
48926;BME280;39838;59.938;30.642;2023-03-04T07:41:41;98026.78;;;2.38;68.06
48926;BME280;39838;59.938;30.642;2023-03-04T07:44:10;98023.31;;;2.45;68.01
48926;BME280;39838;59.938;30.642;2023-03-04T07:46:38;98030.09;;;2.47;67.60
48926;BME280;39838;59.938;30.642;2023-03-04T07:49:05;98025.81;;;2.53;67.38
48926;BME280;39838;59.938;30.642;2023-03-04T07:51:34;98031.75;;;2.59;67.10
48926;BME280;39838;59.938;30.642;2023-03-04T07:54:01;98032.63;;;2.51;66.83
48926;BME280;39838;59.938;30.642;2023-03-04T07:56:30;98007.94;;;2.42;67.03
48926;BME280;39838;59.938;30.642;2023-03-04T07:58:58;98031.69;;;2.65;66.82
48926;BME280;39838;59.938;30.642;2023-03-04T08:01:28;98033.31;;;2.74;67.19
48926;BME280;39838;59.938;30.642;2023-03-04T08:03:56;98028.06;;;2.89;66.83
48926;BME280;39838;59.938;30.642;2023-03-04T08:06:24;98027.06;;;3.06;66.38
48926;BME280;39838;59.938;30.642;2023-03-04T08:08:56;98024.47;;;3.09;66.65
48926;BME280;39838;59.938;30.642;2023-03-04T08:11:24;98031.16;;;3.26;66.10
48926;BME280;39838;59.938;30.642;2023-03-04T08:13:51;98027.59;;;3.40;65.66
48926;BME280;39838;59.938;30.642;2023-03-04T08:16:21;98017.28;;;3.41;65.17
48926;BME280;39838;59.938;30.642;2023-03-04T08:18:52;98012.94;;;3.49;65.17
48926;BME280;39838;59.938;30.642;2023-03-04T08:21:21;98026.41;;;3.68;65.11
48926;BME280;39838;59.938;30.642;2023-03-04T08:23:49;98033.00;;;3.89;65.20
48926;BME280;39838;59.938;30.642;2023-03-04T08:26:20;98035.53;;;3.91;64.50
48926;BME280;39838;59.938;30.642;2023-03-04T08:28:47;98033.78;;;3.96;64.51
48926;BME280;39838;59.938;30.642;2023-03-04T08:31:16;98034.66;;;3.95;63.57
48926;BME280;39838;59.938;30.642;2023-03-04T08:33:44;98034.56;;;4.01;63.61
48926;BME280;39838;59.938;30.642;2023-03-04T08:36:11;98042.19;;;4.07;63.97
48926;BME280;39838;59.938;30.642;2023-03-04T08:38:39;98043.06;;;4.04;63.79
48926;BME280;39838;59.938;30.642;2023-03-04T08:41:06;98037.91;;;4.06;63.26
48926;BME280;39838;59.938;30.642;2023-03-04T08:43:35;98042.28;;;4.01;63.16
48926;BME280;39838;59.938;30.642;2023-03-04T08:46:02;98048.31;;;3.97;63.35
48926;BME280;39838;59.938;30.642;2023-03-04T08:48:29;98042.44;;;3.87;63.38
48926;BME280;39838;59.938;30.642;2023-03-04T08:50:57;98047.59;;;3.87;63.40
48926;BME280;39838;59.938;30.642;2023-03-04T08:53:24;98042.38;;;3.92;63.40
48926;BME280;39838;59.938;30.642;2023-03-04T08:55:51;98051.00;;;3.86;63.31
48926;BME280;39838;59.938;30.642;2023-03-04T08:58:19;98051.03;;;3.84;63.58
48926;BME280;39838;59.938;30.642;2023-03-04T09:00:48;98050.13;;;3.89;63.59
48926;BME280;39838;59.938;30.642;2023-03-04T09:03:17;98047.50;;;3.93;62.97
48926;BME280;39838;59.938;30.642;2023-03-04T09:05:45;98053.50;;;3.94;63.32
48926;BME280;39838;59.938;30.642;2023-03-04T09:08:14;98050.88;;;3.97;63.58
48926;BME280;39838;59.938;30.642;2023-03-04T09:10:42;98050.72;;;4.09;63.49
48926;BME280;39838;59.938;30.642;2023-03-04T09:13:09;98054.94;;;4.15;62.84
48926;BME280;39838;59.938;30.642;2023-03-04T09:15:37;98044.69;;;4.11;62.29
48926;BME280;39838;59.938;30.642;2023-03-04T09:18:06;98049.06;;;4.05;62.31
48926;BME280;39838;59.938;30.642;2023-03-04T09:20:33;98050.97;;;3.89;62.27
48926;BME280;39838;59.938;30.642;2023-03-04T09:23:00;98046.72;;;3.85;61.87
48926;BME280;39838;59.938;30.642;2023-03-04T09:25:27;98048.53;;;3.80;62.39
48926;BME280;39838;59.938;30.642;2023-03-04T09:27:54;98051.97;;;3.77;62.53
48926;BME280;39838;59.938;30.642;2023-03-04T09:30:22;98049.38;;;3.80;62.82
48926;BME280;39838;59.938;30.642;2023-03-04T09:32:49;98051.16;;;3.75;62.12
48926;BME280;39838;59.938;30.642;2023-03-04T09:35:17;98040.09;;;3.66;62.57
48926;BME280;39838;59.938;30.642;2023-03-04T09:37:44;98052.25;;;3.54;62.41
48926;BME280;39838;59.938;30.642;2023-03-04T09:40:16;98024.19;;;3.36;62.57
48926;BME280;39838;59.938;30.642;2023-03-04T09:42:46;98052.22;;;3.56;62.66
48926;BME280;39838;59.938;30.642;2023-03-04T09:45:17;98047.94;;;3.55;62.48
48926;BME280;39838;59.938;30.642;2023-03-04T09:47:47;98020.72;;;3.42;62.52
48926;BME280;39838;59.938;30.642;2023-03-04T09:50:17;98044.50;;;3.59;62.67
48926;BME280;39838;59.938;30.642;2023-03-04T09:52:55;98053.72;;;3.72;61.81
48926;BME280;39838;59.938;30.642;2023-03-04T09:55:32;98050.31;;;3.73;62.02
48926;BME280;39838;59.938;30.642;2023-03-04T09:58:05;98053.69;;;3.77;62.20
48926;BME280;39838;59.938;30.642;2023-03-04T10:00:38;98039.19;;;3.74;61.83
48926;BME280;39838;59.938;30.642;2023-03-04T10:03:13;98056.06;;;3.94;61.21
48926;BME280;39838;59.938;30.642;2023-03-04T10:05:49;98055.94;;;4.03;60.98
48926;BME280;39838;59.938;30.642;2023-03-04T10:08:32;98058.41;;;4.10;61.21
48926;BME280;39838;59.938;30.642;2023-03-04T10:11:03;98037.03;;;4.08;60.77
48926;BME280;39838;59.938;30.642;2023-03-04T10:13:36;98057.34;;;4.25;60.78
48926;BME280;39838;59.938;30.642;2023-03-04T10:16:05;98067.63;;;4.25;60.49
48926;BME280;39838;59.938;30.642;2023-03-04T10:18:38;98038.69;;;4.11;60.41
48926;BME280;39838;59.938;30.642;2023-03-04T10:21:15;98059.81;;;4.33;59.62
48926;BME280;39838;59.938;30.642;2023-03-04T10:23:44;98067.16;;;4.59;60.27
48926;BME280;39838;59.938;30.642;2023-03-04T10:26:14;98059.03;;;4.86;59.01
48926;BME280;39838;59.938;30.642;2023-03-04T10:28:42;98068.84;;;5.15;58.79
48926;BME280;39838;59.938;30.642;2023-03-04T10:31:16;98061.50;;;5.43;57.83
48926;BME280;39838;59.938;30.642;2023-03-04T10:33:47;98063.47;;;5.28;57.49
48926;BME280;39838;59.938;30.642;2023-03-04T10:36:31;98072.28;;;5.16;57.71
48926;BME280;39838;59.938;30.642;2023-03-04T10:39:06;98079.34;;;5.03;57.92
48926;BME280;39838;59.938;30.642;2023-03-04T10:41:33;98080.25;;;4.99;58.57
48926;BME280;39838;59.938;30.642;2023-03-04T10:44:02;98072.88;;;4.78;58.39
48926;BME280;39838;59.938;30.642;2023-03-04T10:46:30;98085.06;;;4.65;58.14
48926;BME280;39838;59.938;30.642;2023-03-04T10:48:57;98080.16;;;4.50;58.24
48926;BME280;39838;59.938;30.642;2023-03-04T10:51:27;98091.22;;;4.56;58.74
48926;BME280;39838;59.938;30.642;2023-03-04T10:53:56;98091.91;;;4.66;59.12
48926;BME280;39838;59.938;30.642;2023-03-04T10:56:33;98096.09;;;4.75;58.65
48926;BME280;39838;59.938;30.642;2023-03-04T10:59:26;98089.13;;;4.81;57.84
48926;BME280;39838;59.938;30.642;2023-03-04T11:01:56;98086.38;;;4.92;58.09
48926;BME280;39838;59.938;30.642;2023-03-04T11:04:24;98079.44;;;4.97;57.99
48926;BME280;39838;59.938;30.642;2023-03-04T11:06:53;98084.69;;;4.91;56.74
48926;BME280;39838;59.938;30.642;2023-03-04T11:09:22;98095.06;;;4.85;57.18
48926;BME280;39838;59.938;30.642;2023-03-04T11:11:51;98085.66;;;4.84;57.76
48926;BME280;39838;59.938;30.642;2023-03-04T11:14:22;98086.56;;;4.80;57.56
48926;BME280;39838;59.938;30.642;2023-03-04T11:16:52;98104.75;;;4.69;56.99
48926;BME280;39838;59.938;30.642;2023-03-04T11:19:22;98094.84;;;4.40;57.22
48926;BME280;39838;59.938;30.642;2023-03-04T11:21:52;98099.69;;;4.00;57.97
48926;BME280;39838;59.938;30.642;2023-03-04T11:24:23;98053.09;;;3.55;58.84
48926;BME280;39838;59.938;30.642;2023-03-04T11:26:54;98095.69;;;3.71;58.63
48926;BME280;39838;59.938;30.642;2023-03-04T11:29:25;98104.25;;;3.73;59.03
48926;BME280;39838;59.938;30.642;2023-03-04T11:31:59;98076.19;;;3.55;58.89
48926;BME280;39838;59.938;30.642;2023-03-04T11:34:35;98102.44;;;3.81;59.21
48926;BME280;39838;59.938;30.642;2023-03-04T11:37:07;98102.25;;;3.97;59.30
48926;BME280;39838;59.938;30.642;2023-03-04T11:39:40;98074.91;;;3.94;58.49
48926;BME280;39838;59.938;30.642;2023-03-04T11:42:25;98096.97;;;4.09;58.74
48926;BME280;39838;59.938;30.642;2023-03-04T11:44:55;98104.50;;;4.24;58.65
48926;BME280;39838;59.938;30.642;2023-03-04T11:47:32;98105.31;;;4.26;57.60
48926;BME280;39838;59.938;30.642;2023-03-04T11:50:28;98102.75;;;4.26;57.53
48926;BME280;39838;59.938;30.642;2023-03-04T11:56:02;98100.59;;;3.91;57.53
48926;BME280;39838;59.938;30.642;2023-03-04T11:58:56;98113.59;;;3.77;58.03
48926;BME280;39838;59.938;30.642;2023-03-04T12:01:33;98089.91;;;3.51;58.01
48926;BME280;39838;59.938;30.642;2023-03-04T12:04:15;98112.22;;;3.47;58.71
48926;BME280;39838;59.938;30.642;2023-03-04T12:06:53;98109.75;;;3.35;58.18
48926;BME280;39838;59.938;30.642;2023-03-04T12:09:38;98112.41;;;3.26;59.04
48926;BME280;39838;59.938;30.642;2023-03-04T12:12:22;98109.88;;;3.21;59.17
48926;BME280;39838;59.938;30.642;2023-03-04T12:15:01;98104.88;;;3.05;59.10
48926;BME280;39838;59.938;30.642;2023-03-04T12:17:49;98114.25;;;3.09;59.19
48926;BME280;39838;59.938;30.642;2023-03-04T12:20:31;98121.88;;;3.19;58.96
48926;BME280;39838;59.938;30.642;2023-03-04T12:23:09;98115.88;;;3.20;59.09
48926;BME280;39838;59.938;30.642;2023-03-04T12:25:50;98124.41;;;3.25;58.86
48926;BME280;39838;59.938;30.642;2023-03-04T12:28:25;98137.19;;;3.28;59.04
48926;BME280;39838;59.938;30.642;2023-03-04T12:31:02;98134.59;;;3.32;58.76
48926;BME280;39838;59.938;30.642;2023-03-04T12:33:41;98134.56;;;3.35;58.78
48926;BME280;39838;59.938;30.642;2023-03-04T12:36:19;98127.69;;;3.37;58.80
48926;BME280;39838;59.938;30.642;2023-03-04T12:38:59;98125.09;;;3.41;58.63
48926;BME280;39838;59.938;30.642;2023-03-04T12:41:36;98137.00;;;3.50;58.21
48926;BME280;39838;59.938;30.642;2023-03-04T12:44:13;98112.38;;;3.32;58.50
48926;BME280;39838;59.938;30.642;2023-03-04T12:47:10;98138.78;;;3.42;58.61
48926;BME280;39838;59.938;30.642;2023-03-04T12:49:48;98155.97;;;3.34;58.82
48926;BME280;39838;59.938;30.642;2023-03-04T12:52:24;98132.19;;;3.13;58.75
48926;BME280;39838;59.938;30.642;2023-03-04T12:54:56;98151.06;;;3.03;58.84
48926;BME280;39838;59.938;30.642;2023-03-04T12:57:26;98146.91;;;2.91;59.28
48926;BME280;39838;59.938;30.642;2023-03-04T12:59:59;98161.44;;;2.88;59.48
48926;BME280;39838;59.938;30.642;2023-03-04T13:02:46;98157.22;;;2.79;59.43
48926;BME280;39838;59.938;30.642;2023-03-04T13:05:28;98148.75;;;2.66;59.46
48926;BME280;39838;59.938;30.642;2023-03-04T13:08:04;98160.69;;;2.72;59.67
48926;BME280;39838;59.938;30.642;2023-03-04T13:10:34;98156.44;;;2.66;59.51
48926;BME280;39838;59.938;30.642;2023-03-04T13:13:03;98164.09;;;2.76;59.81